createdAt,value
2023-01-30T00:01:35.772Z,98511.75
2023-01-30T00:04:03.059Z,98500.16
2023-01-30T00:06:30.774Z,98490.31
2023-01-30T00:08:58.343Z,98495.31
2023-01-30T00:11:30.216Z,98491.59
2023-01-30T00:13:57.755Z,98482.28
2023-01-30T00:16:25.253Z,98486.88
2023-01-30T00:18:52.675Z,98493.28
2023-01-30T00:21:20.234Z,98485.16
2023-01-30T00:23:47.659Z,98483.72
2023-01-30T00:26:15.173Z,98471.13
2023-01-30T00:28:44.216Z,98469.44
2023-01-30T00:31:11.648Z,98469.25
2023-01-30T00:33:39.830Z,98469.25
2023-01-30T00:36:08.113Z,98465.25
2023-01-30T00:38:35.601Z,98458.72
2023-01-30T00:41:03.310Z,98435.63
2023-01-30T00:43:49.482Z,98446.03
2023-01-30T00:46:43.869Z,98446.19
2023-01-30T00:49:11.640Z,98439.50
2023-01-30T00:51:39.025Z,98442.13
2023-01-30T00:54:06.551Z,98442.63
2023-01-30T00:56:34.011Z,98444.78
2023-01-30T00:59:01.663Z,98449.63
2023-01-30T01:01:30.444Z,98441.31
2023-01-30T01:03:57.718Z,98439.63
2023-01-30T01:06:25.223Z,98431.19
2023-01-30T01:08:52.417Z,98424.41
2023-01-30T01:11:26.207Z,98430.81
2023-01-30T01:13:56.205Z,98422.06
2023-01-30T01:16:24.565Z,98417.41
2023-01-30T01:18:53.963Z,98419.22
2023-01-30T01:21:22.143Z,98415.22
2023-01-30T01:23:51.672Z,98391.06
2023-01-30T01:26:19.256Z,98419.41
2023-01-30T01:28:46.809Z,98410.47
2023-01-30T01:31:17.569Z,98403.94
2023-01-30T01:33:45.278Z,98409.59
2023-01-30T01:36:29.445Z,98391.16
2023-01-30T01:39:01.693Z,98395.78
2023-01-30T01:41:29.040Z,98386.06
2023-01-30T01:44:03.247Z,98390.28
2023-01-30T01:46:34.931Z,98384.16
2023-01-30T01:49:06.344Z,98360.31
2023-01-30T01:51:39.212Z,98367.06
2023-01-30T01:54:11.205Z,98360.16
2023-01-30T01:56:44.236Z,98346.13
2023-01-30T01:59:19.361Z,98341.31
2023-01-30T02:01:47.707Z,98344.25
2023-01-30T02:04:35.091Z,98346.13
2023-01-30T02:07:03.939Z,98331.84
2023-01-30T02:09:32.503Z,98331.31
2023-01-30T02:12:02.960Z,98338.09
2023-01-30T02:14:32.371Z,98344.63
2023-01-30T02:16:59.683Z,98330.50
2023-01-30T02:19:35.236Z,98328.72
2023-01-30T02:22:22.703Z,98316.31
2023-01-30T02:25:07.993Z,98327.13
2023-01-30T02:28:10.590Z,98350.97
2023-01-30T02:31:12.147Z,98302.97
2023-01-30T02:33:48.477Z,98309.75
2023-01-30T02:36:26.234Z,98306.81
2023-01-30T02:39:02.800Z,98305.50
2023-01-30T02:41:42.660Z,98303.50
2023-01-30T02:44:16.796Z,98294.59
2023-01-30T02:46:54.053Z,98276.72
2023-01-30T02:49:26.914Z,98280.91
2023-01-30T02:51:56.443Z,98296.31
2023-01-30T02:54:23.852Z,98293.22
2023-01-30T02:56:53.263Z,98277.31
2023-01-30T02:59:28.585Z,98278.72
2023-01-30T03:02:39.292Z,98279.09
2023-01-30T03:05:37.524Z,98275.91
2023-01-30T03:08:19.889Z,98263.19
2023-01-30T03:10:52.501Z,98273.09
2023-01-30T03:13:27.216Z,98270.31
2023-01-30T03:16:00.099Z,98262.88
2023-01-30T03:18:28.969Z,98243.59
2023-01-30T03:20:56.907Z,98249.56
2023-01-30T03:23:24.253Z,98229.25
2023-01-30T03:25:51.736Z,98226.66
2023-01-30T03:28:22.002Z,98235.06
2023-01-30T03:30:50.570Z,98232.06
2023-01-30T03:33:18.051Z,98234.84
2023-01-30T03:35:50.551Z,98243.16
2023-01-30T03:38:18.528Z,98229.06
2023-01-30T03:40:47.215Z,98229.25
2023-01-30T03:43:14.639Z,98214.25
2023-01-30T03:45:42.528Z,98219.16
2023-01-30T03:48:10.174Z,98220.88
2023-01-30T03:50:37.897Z,98217.25
2023-01-30T03:53:07.513Z,98218.34
2023-01-30T03:55:34.987Z,98213.06
2023-01-30T03:58:02.930Z,98199.03
2023-01-30T04:00:33.030Z,98201.03
2023-01-30T04:03:01.162Z,98199.03
2023-01-30T04:05:28.787Z,98193.84
2023-01-30T04:08:02.612Z,98181.13
2023-01-30T04:10:31.457Z,98172.50
2023-01-30T04:12:58.742Z,98165.63
2023-01-30T04:15:27.178Z,98155.19
2023-01-30T04:18:19.216Z,98163.59
2023-01-30T04:20:59.034Z,98162.41
2023-01-30T04:23:33.663Z,98157.22
2023-01-30T04:26:02.536Z,98143.59
2023-01-30T04:28:30.175Z,98149.63
2023-01-30T04:30:57.662Z,98151.63
2023-01-30T04:33:46.991Z,98144.19
2023-01-30T04:36:14.443Z,98124.78
2023-01-30T04:38:42.944Z,98142.38
2023-01-30T04:41:11.699Z,98133.97
2023-01-30T04:43:42.273Z,98138.38
2023-01-30T04:46:32.313Z,98146.09
2023-01-30T04:48:59.694Z,98130.28
2023-01-30T04:51:27.148Z,98129.28
2023-01-30T04:53:54.573Z,98133.78
2023-01-30T04:56:23.235Z,98128.97
2023-01-30T04:58:51.059Z,98120.34
2023-01-30T05:01:23.942Z,98115.66
2023-01-30T05:03:52.330Z,98117.34
2023-01-30T05:06:20.101Z,98098.94
2023-01-30T05:08:49.792Z,98109.56
2023-01-30T05:11:17.406Z,98097.34
2023-01-30T05:13:46.403Z,98094.94
2023-01-30T05:16:15.092Z,98089.03
2023-01-30T05:18:43.199Z,98081.25
2023-01-30T05:21:12.954Z,98076.13
2023-01-30T05:23:40.797Z,98087.72
2023-01-30T05:26:08.282Z,98069.28
2023-01-30T05:28:36.032Z,98065.63
2023-01-30T05:31:06.934Z,98062.13
2023-01-30T05:33:34.767Z,98067.31
2023-01-30T05:36:02.360Z,98058.91
2023-01-30T05:38:29.756Z,98054.63
2023-01-30T05:41:01.295Z,98056.31
2023-01-30T05:43:28.949Z,98044.31
2023-01-30T05:45:57.666Z,98059.72
2023-01-30T05:48:26.956Z,98034.50
2023-01-30T05:50:56.154Z,98031.31
2023-01-30T05:53:24.910Z,98029.03
2023-01-30T05:55:55.616Z,98035.50
2023-01-30T05:58:23.248Z,98021.94
2023-01-30T06:00:50.646Z,98028.31
2023-01-30T06:03:18.398Z,98026.22
2023-01-30T06:05:47.162Z,98026.69
2023-01-30T06:08:14.460Z,98007.16
2023-01-30T06:10:41.887Z,98016.69
2023-01-30T06:13:11.208Z,98012.00
2023-01-30T06:15:39.291Z,98023.50
2023-01-30T06:18:06.648Z,98014.88
2023-01-30T06:20:33.857Z,98017.19
2023-01-30T06:23:02.597Z,97997.75
2023-01-30T06:25:29.946Z,98009.75
2023-01-30T06:27:57.321Z,98010.09
2023-01-30T06:30:24.690Z,98023.72
2023-01-30T06:32:52.183Z,98010.34
2023-01-30T06:35:20.033Z,97992.25
2023-01-30T06:37:47.556Z,98000.56
2023-01-30T06:40:16.739Z,98014.06
2023-01-30T06:42:47.668Z,98014.53
2023-01-30T06:45:17.676Z,97996.34
2023-01-30T06:47:46.952Z,98007.34
2023-01-30T06:50:15.671Z,98007.25
2023-01-30T06:52:43.398Z,98000.25
2023-01-30T06:55:11.692Z,97995.34
2023-01-30T06:57:42.216Z,98004.66
2023-01-30T07:00:12.287Z,97991.78
2023-01-30T07:02:39.857Z,97995.63
2023-01-30T07:05:09.342Z,97993.31
2023-01-30T07:07:37.336Z,97991.94
2023-01-30T07:10:08.825Z,97985.44
2023-01-30T07:12:37.073Z,97991.72
2023-01-30T07:15:07.479Z,97991.50
2023-01-30T07:17:34.917Z,97992.41
2023-01-30T07:20:02.216Z,97987.56
2023-01-30T07:22:30.440Z,97983.59
2023-01-30T07:24:57.955Z,97988.38
2023-01-30T07:27:25.272Z,97984.34
2023-01-30T07:29:53.406Z,97990.16
2023-01-30T07:32:22.829Z,97977.66
2023-01-30T07:34:50.302Z,97974.34
2023-01-30T07:37:17.537Z,97972.78
2023-01-30T07:39:45.127Z,97946.41
2023-01-30T07:42:12.422Z,97969.22
2023-01-30T07:44:40.351Z,97954.13
2023-01-30T07:47:07.711Z,97946.03
2023-01-30T07:49:36.521Z,97956.97
2023-01-30T07:52:03.856Z,97949.13
2023-01-30T07:54:31.327Z,97945.97
2023-01-30T07:56:58.606Z,97939.00
2023-01-30T07:59:25.846Z,97938.09
2023-01-30T08:01:53.099Z,97929.91
2023-01-30T08:04:20.416Z,97933.69
2023-01-30T08:06:49.084Z,97933.78
2023-01-30T08:09:16.513Z,97933.03
2023-01-30T08:11:44.035Z,97934.03
2023-01-30T08:14:11.462Z,97924.81
2023-01-30T08:16:39.220Z,97933.13
2023-01-30T08:19:06.797Z,97938.03
2023-01-30T08:21:34.077Z,97929.72
2023-01-30T08:24:02.799Z,97908.78
2023-01-30T08:26:30.127Z,97909.94
2023-01-30T08:28:57.502Z,97903.13
2023-01-30T08:31:24.878Z,97904.06
2023-01-30T08:33:52.486Z,97910.66
2023-01-30T08:36:19.970Z,97893.44
2023-01-30T08:38:47.214Z,97888.28
2023-01-30T08:41:16.014Z,97883.53
2023-01-30T08:43:43.315Z,97877.41
2023-01-30T08:46:10.641Z,97874.81
2023-01-30T08:48:49.507Z,97871.47
2023-01-30T08:51:17.475Z,97887.19
2023-01-30T08:53:44.764Z,97880.63
2023-01-30T08:56:12.075Z,97880.91
2023-01-30T08:58:41.289Z,97877.19
2023-01-30T09:01:08.791Z,97894.38
2023-01-30T09:03:36.448Z,97875.94
2023-01-30T09:06:04.548Z,97877.53
2023-01-30T09:08:31.876Z,97867.88
2023-01-30T09:10:59.634Z,97857.16
2023-01-30T09:13:27.568Z,97848.03
2023-01-30T09:15:56.560Z,97843.50
2023-01-30T09:18:24.601Z,97858.31
2023-01-30T09:20:52.910Z,97835.97
2023-01-30T09:23:21.049Z,97847.94
2023-01-30T09:25:48.299Z,97840.19
2023-01-30T09:28:15.596Z,97840.31
2023-01-30T09:30:42.881Z,97829.16
2023-01-30T09:33:11.792Z,97820.25
2023-01-30T09:35:39.248Z,97812.63
2023-01-30T09:38:06.711Z,97816.41
2023-01-30T09:40:39.579Z,97810.47
2023-01-30T09:43:29.507Z,97811.03
2023-01-30T09:46:10.713Z,97789.88
2023-01-30T09:48:46.703Z,97789.38
2023-01-30T09:51:45.588Z,97801.34
2023-01-30T09:54:22.360Z,97772.66
2023-01-30T09:56:55.480Z,97772.19
2023-01-30T09:59:25.811Z,97779.25
2023-01-30T10:02:01.454Z,97771.28
2023-01-30T10:04:35.566Z,97778.56
2023-01-30T10:07:15.437Z,97762.84
2023-01-30T10:09:48.028Z,97767.28
2023-01-30T10:12:28.980Z,97744.19
2023-01-30T10:15:37.191Z,97760.44
2023-01-30T10:18:31.247Z,97753.59
2023-01-30T10:21:11.077Z,97753.50
2023-01-30T10:23:56.214Z,97746.75
2023-01-30T10:26:26.792Z,97747.31
2023-01-30T10:29:07.356Z,97739.09
2023-01-30T10:31:42.469Z,97738.53
2023-01-30T10:34:14.962Z,97743.19
2023-01-30T10:36:49.395Z,97729.06
2023-01-30T10:39:26.136Z,97722.84
2023-01-30T10:42:01.664Z,97723.84
2023-01-30T10:44:29.051Z,97719.63
2023-01-30T10:47:11.484Z,97720.41
2023-01-30T10:49:41.943Z,97716.75
2023-01-30T10:52:28.669Z,97708.50
2023-01-30T10:55:04.864Z,97713.97
2023-01-30T10:57:44.710Z,97704.66
2023-01-30T11:00:23.751Z,97707.38
2023-01-30T11:03:02.980Z,97686.97
2023-01-30T11:05:40.480Z,97685.41
2023-01-30T11:08:18.453Z,97693.22
2023-01-30T11:10:45.795Z,97676.38
2023-01-30T11:13:17.978Z,97668.47
2023-01-30T11:15:47.493Z,97667.69
2023-01-30T11:21:07.865Z,97682.28
2023-01-30T11:23:41.058Z,97667.91
2023-01-30T11:26:17.911Z,97666.69
2023-01-30T11:28:48.466Z,97669.72
2023-01-30T11:31:31.431Z,97646.56
2023-01-30T11:34:05.421Z,97649.25
2023-01-30T11:36:34.103Z,97647.34
2023-01-30T11:39:18.864Z,97632.78
2023-01-30T11:42:04.839Z,97650.28
2023-01-30T11:44:34.477Z,97636.75
2023-01-30T11:47:04.499Z,97615.13
2023-01-30T11:49:47.231Z,97635.91
2023-01-30T11:52:24.329Z,97632.91
2023-01-30T11:54:54.483Z,97641.72
2023-01-30T11:57:21.787Z,97630.53
2023-01-30T11:59:55.457Z,97637.75
2023-01-30T12:02:26.176Z,97635.53
2023-01-30T12:04:57.226Z,97616.53
2023-01-30T12:07:26.335Z,97624.59
2023-01-30T12:09:57.009Z,97620.25
2023-01-30T12:12:29.252Z,97611.31
2023-01-30T12:15:05.146Z,97601.28
2023-01-30T12:17:39.728Z,97626.63
2023-01-30T12:20:18.115Z,97610.78
2023-01-30T12:22:52.684Z,97606.66
2023-01-30T12:25:25.714Z,97609.22
2023-01-30T12:30:36.633Z,97621.16
2023-01-30T12:33:06.782Z,97594.88
2023-01-30T12:35:50.353Z,97598.53
2023-01-30T12:38:32.152Z,97592.59
2023-01-30T12:41:12.484Z,97581.91
2023-01-30T12:44:03.637Z,97579.94
2023-01-30T12:47:00.453Z,97584.56
2023-01-30T12:49:52.231Z,97591.56
2023-01-30T12:52:46.160Z,97575.72
2023-01-30T12:55:30.375Z,97569.25
2023-01-30T12:58:03.177Z,97575.97
2023-01-30T13:00:43.123Z,97570.16
2023-01-30T13:03:23.684Z,97559.88
2023-01-30T13:05:58.742Z,97555.16
2023-01-30T13:08:48.422Z,97561.72
2023-01-30T13:11:29.723Z,97559.25
2023-01-30T13:14:07.677Z,97548.00
2023-01-30T13:16:41.589Z,97551.16
2023-01-30T13:19:19.243Z,97549.59
2023-01-30T13:21:56.688Z,97555.94
2023-01-30T13:24:33.255Z,97550.97
2023-01-30T13:27:06.525Z,97551.78
2023-01-30T13:29:38.255Z,97542.75
2023-01-30T13:32:15.246Z,97554.41
2023-01-30T13:34:45.588Z,97535.91
2023-01-30T13:37:15.049Z,97540.25
2023-01-30T13:39:49.251Z,97521.13
2023-01-30T13:42:27.396Z,97526.75
2023-01-30T13:44:57.648Z,97527.34
2023-01-30T13:47:42.865Z,97526.19
2023-01-30T13:50:31.026Z,97530.53
2023-01-30T13:53:05.727Z,97532.94
2023-01-30T13:55:40.535Z,97513.09
2023-01-30T13:58:25.253Z,97532.19
2023-01-30T14:00:55.836Z,97518.81
2023-01-30T14:03:30.745Z,97516.56
2023-01-30T14:06:14.496Z,97539.72
2023-01-30T14:08:59.174Z,97500.97
2023-01-30T14:11:39.477Z,97538.81
2023-01-30T14:14:23.853Z,97546.56
2023-01-30T14:16:54.920Z,97524.13
2023-01-30T14:19:33.885Z,97527.81
2023-01-30T14:22:05.796Z,97546.56
2023-01-30T14:24:33.161Z,97488.44
2023-01-30T14:27:21.933Z,97540.75
2023-01-30T14:29:56.261Z,97520.97
2023-01-30T14:32:55.971Z,97532.59
2023-01-30T14:35:28.625Z,97518.84
2023-01-30T14:38:11.874Z,97527.97
2023-01-30T14:40:44.188Z,97499.69
2023-01-30T14:43:45.269Z,97508.28
2023-01-30T14:46:55.083Z,97503.38
2023-01-30T14:49:29.669Z,97490.56
2023-01-30T14:52:00.206Z,97497.97
2023-01-30T14:54:42.046Z,97513.84
2023-01-30T14:57:32.969Z,97502.97
2023-01-30T15:00:16.966Z,97500.75
2023-01-30T15:02:51.787Z,97497.19
2023-01-30T15:05:28.455Z,97510.41
2023-01-30T15:08:02.749Z,97499.06
2023-01-30T15:10:49.365Z,97500.63
2023-01-30T15:13:41.753Z,97481.09
2023-01-30T15:16:44.459Z,97497.19
2023-01-30T15:19:26.153Z,97490.06
2023-01-30T15:22:06.303Z,97510.94
2023-01-30T15:25:18.205Z,97485.44
2023-01-30T15:28:02.397Z,97493.09
2023-01-30T15:30:47.422Z,97486.34
2023-01-30T15:33:22.824Z,97488.22
2023-01-30T15:35:54.340Z,97494.97
2023-01-30T15:38:29.408Z,97497.59
2023-01-30T15:41:00.969Z,97486.75
2023-01-30T15:44:01.653Z,97487.03
2023-01-30T15:46:37.311Z,97483.19
2023-01-30T15:49:38.101Z,97485.31
2023-01-30T15:52:07.257Z,97492.69
2023-01-30T15:54:35.897Z,97480.41
2023-01-30T15:57:03.619Z,97486.34
2023-01-30T15:59:35.653Z,97490.19
2023-01-30T16:02:07.128Z,97460.19
2023-01-30T16:04:34.444Z,97456.38
2023-01-30T16:07:15.145Z,97472.22
2023-01-30T16:10:06.336Z,97468.25
2023-01-30T16:12:36.652Z,97467.97
2023-01-30T16:15:18.361Z,97460.19
2023-01-30T16:17:57.455Z,97461.91
2023-01-30T16:20:25.053Z,97461.53
2023-01-30T16:22:53.329Z,97441.94
2023-01-30T16:25:25.021Z,97452.66
2023-01-30T16:27:53.817Z,97467.59
2023-01-30T16:30:24.895Z,97442.88
2023-01-30T16:32:54.152Z,97446.44
2023-01-30T16:35:31.840Z,97465.63
2023-01-30T16:38:01.593Z,97458.34
2023-01-30T16:40:42.663Z,97472.88
2023-01-30T16:43:18.989Z,97465.06
2023-01-30T16:46:21.777Z,97462.84
2023-01-30T16:48:50.161Z,97460.31
2023-01-30T16:51:23.690Z,97476.97
2023-01-30T16:53:58.847Z,97447.88
2023-01-30T16:56:28.590Z,97444.22
2023-01-30T16:58:59.258Z,97437.44
2023-01-30T17:01:41.692Z,97454.38
2023-01-30T17:04:18.974Z,97447.78
2023-01-30T17:06:53.333Z,97455.81
2023-01-30T17:09:42.733Z,97457.00
2023-01-30T17:12:43.157Z,97437.09
2023-01-30T17:15:28.491Z,97437.09
2023-01-30T17:17:55.799Z,97441.16
2023-01-30T17:20:27.959Z,97429.91
2023-01-30T17:23:01.098Z,97435.22
2023-01-30T17:25:33.075Z,97448.69
2023-01-30T17:28:02.569Z,97442.75
2023-01-30T17:30:30.848Z,97438.78
2023-01-30T17:32:58.169Z,97444.06
2023-01-30T17:35:25.554Z,97457.28
2023-01-30T17:38:04.184Z,97446.44
2023-01-30T17:40:34.342Z,97444.22
2023-01-30T17:43:03.411Z,97452.50
2023-01-30T17:45:30.712Z,97452.78
2023-01-30T17:47:58.297Z,97457.53
2023-01-30T17:50:25.810Z,97467.06
2023-01-30T17:52:53.158Z,97464.41
2023-01-30T17:55:21.817Z,97473.66
2023-01-30T17:57:49.610Z,97470.38
2023-01-30T18:00:21.103Z,97453.59
2023-01-30T18:02:48.958Z,97457.00
2023-01-30T18:05:16.555Z,97471.28
2023-01-30T18:07:44.664Z,97457.53
2023-01-30T18:10:15.330Z,97453.59
2023-01-30T18:12:42.941Z,97468.38
2023-01-30T18:15:13.072Z,97456.09
2023-01-30T18:17:46.815Z,97469.56
2023-01-30T18:20:17.095Z,97465.72
2023-01-30T18:22:44.581Z,97459.13
2023-01-30T18:25:15.552Z,97453.47
2023-01-30T18:27:44.357Z,97458.06
2023-01-30T18:30:15.870Z,97453.81
2023-01-30T18:32:52.409Z,97459.00
2023-01-30T18:35:20.284Z,97461.00
2023-01-30T18:37:47.530Z,97474.84
2023-01-30T18:40:15.353Z,97460.03
2023-01-30T18:42:42.637Z,97474.47
2023-01-30T18:45:10.425Z,97454.78
2023-01-30T18:47:37.853Z,97465.72
2023-01-30T18:50:07.402Z,97463.47
2023-01-30T18:52:34.725Z,97449.19
2023-01-30T18:55:02.063Z,97470.09
2023-01-30T18:57:30.859Z,97466.94
2023-01-30T18:59:58.495Z,97454.50
2023-01-30T19:02:25.974Z,97461.22
2023-01-30T19:04:53.492Z,97446.16
2023-01-30T19:07:22.205Z,97460.03
2023-01-30T19:09:49.493Z,97461.75
2023-01-30T19:12:35.238Z,97449.09
2023-01-30T19:15:03.565Z,97459.91
2023-01-30T19:17:31.846Z,97455.16
2023-01-30T19:20:02.048Z,97450.66
2023-01-30T19:22:32.770Z,97458.88
2023-01-30T19:24:59.987Z,97454.75
2023-01-30T19:27:27.375Z,97450.66
2023-01-30T19:29:54.761Z,97462.69
2023-01-30T19:32:22.393Z,97455.66
2023-01-30T19:34:50.806Z,97444.81
2023-01-30T19:37:18.385Z,97444.16
2023-01-30T19:39:47.069Z,97453.63
2023-01-30T19:42:16.480Z,97456.53
2023-01-30T19:44:44.039Z,97447.53
2023-01-30T19:47:11.381Z,97440.53
2023-01-30T19:49:38.710Z,97462.56
2023-01-30T19:52:06.011Z,97456.50
2023-01-30T19:54:34.533Z,97444.97
2023-01-30T19:57:03.187Z,97471.78
2023-01-30T19:59:30.536Z,97461.06
2023-01-30T20:01:58.119Z,97459.91
2023-01-30T20:04:25.611Z,97457.22
2023-01-30T20:06:52.889Z,97440.91
2023-01-30T20:09:20.243Z,97448.66
2023-01-30T20:11:47.716Z,97462.47
2023-01-30T20:14:16.461Z,97457.09
2023-01-30T20:16:43.878Z,97458.34
2023-01-30T20:19:14.504Z,97454.97
2023-01-30T20:21:42.449Z,97445.31
2023-01-30T20:24:11.482Z,97454.84
2023-01-30T20:26:40.021Z,97456.16
2023-01-30T20:29:09.387Z,97459.19
2023-01-30T20:31:39.352Z,97459.84
2023-01-30T20:34:08.543Z,97453.75
2023-01-30T20:36:36.032Z,97465.78
2023-01-30T20:39:06.549Z,97459.75
2023-01-30T20:41:35.949Z,97460.34
2023-01-30T20:44:04.851Z,97459.69
2023-01-30T20:46:41.198Z,97462.69
2023-01-30T20:49:12.871Z,97462.03
2023-01-30T20:51:40.477Z,97447.25
2023-01-30T20:54:10.330Z,97445.91
2023-01-30T20:56:39.877Z,97449.22
2023-01-30T20:59:08.052Z,97449.63
2023-01-30T21:01:37.461Z,97454.38
2023-01-30T21:04:07.111Z,97444.31
2023-01-30T21:06:41.658Z,97445.66
2023-01-30T21:09:12.724Z,97444.69
2023-01-30T21:11:40.146Z,97441.81
2023-01-30T21:14:07.869Z,97448.28
2023-01-30T21:16:38.462Z,97445.22
2023-01-30T21:19:08.453Z,97461.69
2023-01-30T21:21:39.111Z,97443.22
2023-01-30T21:24:08.607Z,97446.34
2023-01-30T21:26:38.056Z,97448.97
2023-01-30T21:29:08.415Z,97450.19
2023-01-30T21:31:39.148Z,97448.22
2023-01-30T21:34:07.864Z,97458.78
2023-01-30T21:36:35.467Z,97434.44
2023-01-30T21:39:21.323Z,97452.53
2023-01-30T21:42:07.517Z,97447.38
2023-01-30T21:44:39.371Z,97453.75
2023-01-30T21:47:08.534Z,97450.47
2023-01-30T21:49:37.051Z,97462.41
2023-01-30T21:52:04.788Z,97456.13
2023-01-30T21:54:32.162Z,97455.59
2023-01-30T21:56:59.432Z,97450.03
2023-01-30T21:59:26.852Z,97451.75
2023-01-30T22:01:54.167Z,97451.91
2023-01-30T22:04:23.225Z,97457.66
2023-01-30T22:06:50.582Z,97453.06
2023-01-30T22:09:17.920Z,97458.34
2023-01-30T22:11:46.280Z,97454.38
2023-01-30T22:14:14.282Z,97454.25
2023-01-30T22:16:42.215Z,97461.06
2023-01-30T22:19:10.017Z,97448.13
2023-01-30T22:21:40.253Z,97455.00
2023-01-30T22:24:09.138Z,97456.06
2023-01-30T22:26:36.925Z,97459.06
2023-01-30T22:29:06.207Z,97467.31
2023-01-30T22:31:35.577Z,97463.41
2023-01-30T22:34:04.728Z,97457.91
2023-01-30T22:36:33.757Z,97460.00
2023-01-30T22:39:03.687Z,97454.03
2023-01-30T22:41:32.812Z,97454.31
2023-01-30T22:44:01.159Z,97461.81
2023-01-30T22:46:31.649Z,97469.03
2023-01-30T22:48:59.784Z,97462.19
2023-01-30T22:51:29.493Z,97451.13
2023-01-30T22:53:58.894Z,97446.25
2023-01-30T22:56:29.117Z,97459.44
2023-01-30T22:58:56.578Z,97450.63
2023-01-30T23:01:25.825Z,97465.00
2023-01-30T23:03:55.283Z,97456.31
2023-01-30T23:06:23.902Z,97456.81
2023-01-30T23:08:51.516Z,97476.16
2023-01-30T23:11:22.440Z,97455.22
2023-01-30T23:13:53.732Z,97467.63
2023-01-30T23:16:25.961Z,97464.69
2023-01-30T23:18:56.346Z,97470.03
2023-01-30T23:21:25.298Z,97475.81
2023-01-30T23:23:55.373Z,97454.69
2023-01-30T23:26:24.037Z,97460.78
2023-01-30T23:28:52.929Z,97457.50
2023-01-30T23:31:21.885Z,97468.16
2023-01-30T23:33:53.317Z,97465.28
2023-01-30T23:36:20.961Z,97460.06
2023-01-30T23:38:49.458Z,97462.00
2023-01-30T23:41:18.865Z,97458.16
2023-01-30T23:43:47.903Z,97455.91
2023-01-30T23:46:19.495Z,97457.59
2023-01-30T23:48:48.736Z,97453.94
2023-01-30T23:51:17.610Z,97455.47
2023-01-30T23:53:45.586Z,97460.22
2023-01-30T23:56:13.919Z,97446.78
2023-01-30T23:58:41.975Z,97449.97
